Time;durP1;ratioP1;P1;durP2;ratioP2;P2;SDS_P1;SDS_P2;PMS_P1;PMS_P2;Temp;Humidity;BMP_temperature;BMP_pressure;BME280_temperature;BME280_humidity;BME280_pressure;Samples;Min_cycle;Max_cycle;Signal;HPM_P1;HPM_P2
2021/10/17 00:02:09;;;;;;;43.70;29.12;;;;;;;8.68;100.00;101030.48;1600086;88;21146;-89
2021/10/17 00:04:36;;;;;;;46.63;31.52;;;;;;;8.75;100.00;101027.89;1578310;89;21065;-88
2021/10/17 00:07:03;;;;;;;42.58;29.57;;;;;;;8.82;100.00;101033.08;1599927;88;21303;-89
2021/10/17 00:09:30;;;;;;;39.15;27.87;;;;;;;8.82;100.00;101035.67;1599622;88;21654;-89
2021/10/17 00:11:57;;;;;;;36.90;25.20;;;;;;;8.76;100.00;101034.75;1578809;89;21144;-88
2021/10/17 00:14:24;;;;;;;33.60;25.08;;;;;;;8.74;100.00;101033.16;1600331;88;21118;-87
2021/10/17 00:16:51;;;;;;;38.85;25.70;;;;;;;8.72;100.00;101033.25;1599998;88;21080;-88
2021/10/17 00:19:18;;;;;;;47.58;26.42;;;;;;;8.72;100.00;101041.52;1599976;88;21188;-87
2021/10/17 00:21:45;;;;;;;48.15;26.07;;;;;;;8.76;100.00;101034.75;1600058;88;21058;-86
2021/10/17 00:24:12;;;;;;;47.43;28.05;;;;;;;8.86;100.00;101031.13;1599414;88;21156;-89
2021/10/17 00:26:39;;;;;;;38.90;26.40;;;;;;;8.97;100.00;101034.36;1583419;88;21098;-87
2021/10/17 00:29:07;;;;;;;34.60;25.57;;;;;;;9.03;100.00;101030.08;1599784;88;21133;-87
2021/10/17 00:31:35;;;;;;;35.65;25.75;;;;;;;9.09;100.00;101029.69;1583909;89;21517;-88
2021/10/17 00:34:02;;;;;;;43.55;27.67;;;;;;;9.12;100.00;101032.10;1599963;88;22046;-88
2021/10/17 00:36:34;;;;;;;35.40;25.50;;;;;;;9.14;100.00;101025.05;1599358;88;21129;-91
2021/10/17 00:39:04;;;;;;;32.80;26.35;;;;;;;9.13;100.00;101017.37;1600114;88;21178;-88
2021/10/17 00:41:33;;;;;;;34.38;27.37;;;;;;;9.07;100.00;101018.58;1599856;88;21125;-89
2021/10/17 00:44:02;;;;;;;39.78;27.22;;;;;;;9.06;100.00;101016.05;1583412;88;21101;-88
2021/10/17 00:46:29;;;;;;;33.33;24.27;;;;;;;9.07;100.00;101012.53;1599472;88;21089;-89
2021/10/17 00:48:56;;;;;;;28.65;22.40;;;;;;;9.03;100.00;101017.56;1599848;88;21100;-88
2021/10/17 00:51:23;;;;;;;30.23;22.02;;;;;;;8.89;100.00;101015.37;1599636;88;21160;-87
2021/10/17 00:53:50;;;;;;;26.77;21.37;;;;;;;8.73;100.00;101016.75;1589121;89;21082;-88
2021/10/17 00:56:19;;;;;;;29.77;21.80;;;;;;;8.62;100.00;101019.16;1566379;89;21176;-89
2021/10/17 00:58:46;;;;;;;26.62;20.80;;;;;;;8.55;100.00;101013.97;1589048;88;21617;-88
2021/10/17 01:01:14;;;;;;;26.65;20.68;;;;;;;8.48;100.00;101007.85;1588931;88;21614;-88
2021/10/17 01:03:41;;;;;;;27.52;19.20;;;;;;;8.43;100.00;101007.72;1566943;88;21858;-89
2021/10/17 01:06:12;;;;;;;28.23;20.88;;;;;;;8.41;100.00;101013.01;1589006;88;21805;-89
2021/10/17 01:08:37;;;;;;;34.10;19.40;;;;;;;8.41;100.00;101016.91;1585812;88;21086;-89
2021/10/17 01:11:06;;;;;;;26.17;19.48;;;;;;;8.41;100.00;101013.48;1589062;89;21042;-88
2021/10/17 01:13:34;;;;;;;23.70;19.00;;;;;;;8.42;100.00;101017.28;1589225;89;21663;-88
2021/10/17 01:16:04;;;;;;;26.20;19.15;;;;;;;8.45;100.00;101016.25;1589280;88;21202;-90
2021/10/17 01:18:36;;;;;;;27.37;19.42;;;;;;;8.45;100.00;101022.27;1586066;88;21137;-89
2021/10/17 01:21:05;;;;;;;27.50;19.98;;;;;;;8.50;100.00;101017.69;1585535;88;21201;-88
2021/10/17 01:23:33;;;;;;;28.15;19.15;;;;;;;8.59;100.00;101016.28;1588914;88;21925;-89
2021/10/17 01:26:00;;;;;;;25.90;18.75;;;;;;;8.66;100.00;101018.88;1588803;88;21092;-89
2021/10/17 01:28:27;;;;;;;27.20;18.82;;;;;;;8.72;100.00;101013.78;1589367;88;21145;-89
2021/10/17 01:30:57;;;;;;;25.68;18.25;;;;;;;8.78;100.00;101016.00;1566006;88;21121;-89
2021/10/17 01:33:23;;;;;;;29.65;19.60;;;;;;;8.86;100.00;101015.98;1588928;88;21050;-88
2021/10/17 01:35:50;;;;;;;24.82;19.50;;;;;;;8.91;100.00;101015.27;1588952;88;21026;-88
2021/10/17 01:38:18;;;;;;;24.85;19.52;;;;;;;8.94;100.00;101010.71;1588866;89;21600;-87
2021/10/17 01:40:45;;;;;;;23.65;18.32;;;;;;;8.93;100.00;101017.30;1590347;88;21133;-88
2021/10/17 01:43:13;;;;;;;23.60;18.67;;;;;;;8.91;100.00;101014.78;1565972;88;21588;-88
2021/10/17 01:45:47;;;;;;;25.27;19.12;;;;;;;8.93;100.00;101022.50;1544068;90;21129;-89
2021/10/17 01:48:14;;;;;;;27.65;19.77;;;;;;;8.96;100.00;101013.20;1566481;90;21162;-89
2021/10/17 01:50:43;;;;;;;27.50;19.73;;;;;;;8.99;100.00;101015.63;1589010;89;21185;-91
2021/10/17 01:53:12;;;;;;;24.90;20.05;;;;;;;9.00;100.00;101010.80;1568997;89;22240;-90
2021/10/17 01:55:40;;;;;;;25.92;19.52;;;;;;;9.03;100.00;101018.86;1584558;89;21133;-88
2021/10/17 01:58:07;;;;;;;25.02;19.62;;;;;;;9.04;100.00;101015.34;1584523;89;21611;-88
2021/10/17 02:00:36;;;;;;;28.40;20.52;;;;;;;9.05;100.00;101019.61;1584312;89;21145;-88
2021/10/17 02:03:03;;;;;;;30.70;22.15;;;;;;;9.02;100.00;101018.01;1584387;89;21152;-88
2021/10/17 02:05:32;;;;;;;32.05;22.42;;;;;;;8.96;100.00;101022.30;1582314;89;21141;-89
2021/10/17 02:08:00;;;;;;;28.85;21.97;;;;;;;8.81;100.00;101021.02;1568271;90;21047;-88
2021/10/17 02:10:28;;;;;;;32.45;22.93;;;;;;;8.65;100.00;101026.30;1584324;89;21047;-88
2021/10/17 02:12:57;;;;;;;34.35;24.72;;;;;;;8.53;100.00;101038.72;1581967;89;21086;-89
2021/10/17 02:15:25;;;;;;;37.78;27.05;;;;;;;8.46;100.00;101037.39;1568265;90;21091;-88
2021/10/17 02:17:54;;;;;;;38.08;27.67;;;;;;;8.36;100.00;101041.00;1584262;89;21117;-87
2021/10/17 02:20:22;;;;;;;46.68;27.85;;;;;;;8.30;100.00;101039.59;1568578;89;21101;-88
2021/10/17 02:22:49;;;;;;;40.88;28.52;;;;;;;8.22;100.00;101040.52;1568361;89;21113;-87
2021/10/17 02:25:16;;;;;;;38.40;27.70;;;;;;;8.18;100.00;101045.05;1584732;89;21134;-88
2021/10/17 02:27:44;;;;;;;44.90;27.90;;;;;;;8.21;100.00;101043.55;1568427;89;21169;-88
2021/10/17 02:30:11;;;;;;;41.10;28.57;;;;;;;8.22;100.00;101044.41;1584365;89;21178;-88
2021/10/17 02:32:40;;;;;;;51.30;28.25;;;;;;;8.23;100.00;101036.14;1582033;89;21066;-87
2021/10/17 02:35:09;;;;;;;51.08;29.95;;;;;;;8.25;100.00;101038.19;1581904;89;21066;-90
2021/10/17 02:37:38;;;;;;;48.08;29.57;;;;;;;8.29;100.00;101035.33;1584364;89;21122;-91
2021/10/17 02:40:07;;;;;;;50.50;30.70;;;;;;;8.26;100.00;101037.27;1589067;88;21180;-89
2021/10/17 02:42:33;;;;;;;42.73;29.67;;;;;;;8.18;100.00;101034.66;1584371;89;21150;-89
2021/10/17 02:45:00;;;;;;;44.40;29.40;;;;;;;8.11;100.00;101043.73;1584290;89;21142;-88
2021/10/17 02:47:28;;;;;;;44.63;31.27;;;;;;;8.02;100.00;101037.30;1584358;89;21626;-87
2021/10/17 02:49:55;;;;;;;45.73;30.62;;;;;;;7.95;100.00;101039.05;1584358;89;21087;-87
2021/10/17 02:52:24;;;;;;;44.67;29.05;;;;;;;7.83;100.00;101042.70;1585609;88;21141;-88
2021/10/17 02:54:51;;;;;;;41.55;28.00;;;;;;;7.66;100.00;101039.78;1607205;87;21835;-89
2021/10/17 02:57:18;;;;;;;37.03;27.75;;;;;;;7.58;100.00;101041.97;1580240;89;20994;-88
2021/10/17 02:59:46;;;;;;;38.35;27.65;;;;;;;7.49;100.00;101046.36;1607157;87;20974;-88
2021/10/17 03:02:15;;;;;;;35.83;26.40;;;;;;;7.48;100.00;101049.42;1607237;87;21052;-87
2021/10/17 03:04:43;;;;;;;36.60;26.00;;;;;;;7.50;100.00;101052.74;1607232;87;21041;-88
2021/10/17 03:07:11;;;;;;;37.63;26.97;;;;;;;7.44;100.00;101050.50;1606352;87;21201;-87
2021/10/17 03:09:40;;;;;;;31.55;24.87;;;;;;;7.38;100.00;101048.25;1602312;87;21103;-89
2021/10/17 03:12:07;;;;;;;33.25;25.17;;;;;;;7.35;100.00;101048.41;1606126;87;21052;-87
2021/10/17 03:14:34;;;;;;;38.70;25.43;;;;;;;7.35;100.00;101043.22;1598241;88;21047;-87
2021/10/17 03:17:06;;;;;;;33.92;24.77;;;;;;;7.33;100.00;101041.20;1581737;89;21043;-88
2021/10/17 03:19:35;;;;;;;47.75;26.05;;;;;;;7.31;100.00;101042.55;1577989;89;21164;-83
2021/10/17 03:22:03;;;;;;;64.90;27.07;;;;;;;7.30;100.00;101040.88;1581638;89;21063;-83
2021/10/17 03:24:31;;;;;;;44.00;26.55;;;;;;;7.41;100.00;101039.02;1581824;89;21624;-88
2021/10/17 03:26:58;;;;;;;44.77;27.75;;;;;;;7.71;100.00;101038.23;1581894;89;21079;-85
2021/10/17 03:29:27;;;;;;;38.88;26.57;;;;;;;7.97;100.00;101034.63;1581896;89;20981;-85
2021/10/17 03:31:57;;;;;;;50.00;28.43;;;;;;;8.19;100.00;101034.19;1578027;89;21104;-85
2021/10/17 03:34:24;;;;;;;44.40;28.90;;;;;;;8.43;100.00;101033.23;1581858;89;21725;-86
2021/10/17 03:36:52;;;;;;;42.73;26.45;;;;;;;8.62;100.00;101033.43;1581661;89;21056;-84
2021/10/17 03:39:19;;;;;;;39.95;26.30;;;;;;;8.67;100.00;101032.23;1581784;89;21051;-82
2021/10/17 03:41:46;;;;;;;32.75;24.80;;;;;;;8.67;100.00;101030.11;1581894;89;21613;-81
2021/10/17 03:44:13;;;;;;;59.27;25.48;;;;;;;8.69;100.00;101026.97;1555603;90;21159;-82
2021/10/17 03:46:40;;;;;;;42.10;25.25;;;;;;;8.70;100.00;101032.98;1555599;90;21139;-81
2021/10/17 03:49:07;;;;;;;33.67;25.23;;;;;;;8.67;100.00;101029.64;1582219;89;21582;-82
2021/10/17 03:51:35;;;;;;;41.37;25.40;;;;;;;8.68;100.00;101029.19;1581711;89;21529;-82
2021/10/17 03:54:04;;;;;;;35.00;24.12;;;;;;;8.68;100.00;101034.38;1573228;89;21071;-82
2021/10/17 03:56:31;;;;;;;33.85;25.60;;;;;;;8.66;100.00;101029.73;1578715;89;21871;-83
2021/10/17 03:59:01;;;;;;;30.52;23.80;;;;;;;8.62;100.00;101030.39;1578284;89;21110;-81
2021/10/17 04:01:27;;;;;;;30.40;23.02;;;;;;;8.59;100.00;101034.94;1574070;89;21118;-81
2021/10/17 04:03:54;;;;;;;28.40;22.67;;;;;;;8.55;100.00;101039.47;1578257;89;21141;-82
2021/10/17 04:06:21;;;;;;;30.82;23.95;;;;;;;8.51;100.00;101037.97;1577098;89;21313;-82
2021/10/17 04:08:51;;;;;;;28.38;22.13;;;;;;;8.45;100.00;101049.52;1573104;89;21182;-82
2021/10/17 04:11:18;;;;;;;36.58;23.05;;;;;;;8.32;100.00;101049.88;1576767;89;21088;-82
2021/10/17 04:13:45;;;;;;;35.25;22.37;;;;;;;8.02;100.00;101046.85;1576969;89;21534;-81
2021/10/17 04:16:13;;;;;;;30.97;22.27;;;;;;;7.84;100.00;101050.04;1576679;89;21076;-81
2021/10/17 04:18:41;;;;;;;33.25;22.42;;;;;;;7.78;100.00;101050.36;1553391;89;21055;-79
2021/10/17 04:21:09;;;;;;;31.20;21.60;;;;;;;7.76;100.00;101053.05;1563861;90;21172;-80
2021/10/17 04:23:36;;;;;;;36.60;22.45;;;;;;;7.76;100.00;101053.05;1558158;90;21134;-81
2021/10/17 04:26:04;;;;;;;33.98;22.35;;;;;;;7.72;100.00;101052.87;1535212;90;21166;-89
2021/10/17 04:28:33;;;;;;;29.65;21.45;;;;;;;7.74;100.00;101052.30;1558431;90;21112;-91
2021/10/17 04:31:00;;;;;;;36.55;20.95;;;;;;;7.72;100.00;101048.50;1558506;90;21097;-92
2021/10/17 04:33:27;;;;;;;31.90;21.25;;;;;;;7.76;100.00;101053.05;1558293;90;21502;-92
2021/10/17 04:35:54;;;;;;;32.63;21.27;;;;;;;7.79;100.00;101055.48;1581297;89;21470;-91
2021/10/17 04:38:21;;;;;;;39.78;22.58;;;;;;;7.80;100.00;101057.16;1534865;90;21746;-90
2021/10/17 04:40:48;;;;;;;50.20;22.30;;;;;;;7.83;100.00;101054.84;1558689;90;21083;-90
2021/10/17 04:43:15;;;;;;;32.35;20.70;;;;;;;7.86;100.00;101058.10;1558283;90;21146;-89
2021/10/17 04:45:43;;;;;;;32.30;22.42;;;;;;;7.89;100.00;101060.50;1581334;89;21184;-91
2021/10/17 04:48:12;;;;;;;29.12;22.15;;;;;;;7.89;100.00;101072.17;1558442;90;21094;-90
2021/10/17 04:50:41;;;;;;;25.40;21.17;;;;;;;7.86;100.00;101074.10;1558363;90;21059;-88
2021/10/17 04:53:09;;;;;;;32.83;22.37;;;;;;;7.81;100.00;101074.36;1556461;90;21086;-89
2021/10/17 04:55:37;;;;;;;29.32;24.10;;;;;;;7.81;100.00;101082.61;1582804;89;21583;-88
2021/10/17 04:58:06;;;;;;;32.13;24.72;;;;;;;7.83;100.00;101083.38;1628238;86;21176;-90
2021/10/17 05:00:33;;;;;;;32.98;24.87;;;;;;;7.84;100.00;101077.27;1632462;86;21080;-90
2021/10/17 05:03:03;;;;;;;32.20;24.18;;;;;;;7.86;100.00;101078.84;1633113;86;21089;-90
2021/10/17 05:05:31;;;;;;;32.53;25.62;;;;;;;7.87;100.00;101081.81;1605511;86;21089;-88
2021/10/17 05:08:02;;;;;;;34.80;26.27;;;;;;;7.85;100.00;101078.94;1622506;86;21030;-91
2021/10/17 05:10:31;;;;;;;34.05;25.57;;;;;;;7.84;100.00;101078.09;1618780;86;21751;-89
2021/10/17 05:13:00;;;;;;;39.90;27.05;;;;;;;7.87;100.00;101078.38;1611547;86;21673;-89
2021/10/17 05:15:27;;;;;;;34.38;26.97;;;;;;;7.91;100.00;101088.96;1635802;86;21152;-91
2021/10/17 05:17:55;;;;;;;34.23;26.30;;;;;;;7.93;100.00;101088.86;1607474;86;21058;-91
2021/10/17 05:20:23;;;;;;;36.33;26.30;;;;;;;7.94;100.00;101084.05;1639808;84;21069;-91
2021/10/17 05:22:50;;;;;;;35.28;26.60;;;;;;;7.97;100.00;101086.48;1619903;86;21145;-89
2021/10/17 05:25:18;;;;;;;31.17;24.70;;;;;;;7.98;100.00;101084.24;1633678;86;21129;-89
2021/10/17 05:27:46;;;;;;;33.85;26.17;;;;;;;7.98;100.00;101089.43;1646292;84;21112;-89
2021/10/17 05:30:16;;;;;;;30.70;25.02;;;;;;;7.94;100.00;101084.87;1661678;84;21044;-90
2021/10/17 05:32:44;;;;;;;29.52;23.32;;;;;;;7.96;100.00;101079.62;1661444;85;21099;-90
2021/10/17 05:35:11;;;;;;;30.37;23.07;;;;;;;8.01;100.00;101078.89;1662092;84;21119;-89
2021/10/17 05:37:38;;;;;;;33.70;24.57;;;;;;;8.07;100.00;101080.31;1661733;84;21122;-89
2021/10/17 05:40:06;;;;;;;28.45;21.90;;;;;;;8.15;100.00;101089.31;1661818;85;21626;-89
2021/10/17 05:42:36;;;;;;;33.03;23.27;;;;;;;8.21;100.00;101088.95;1656085;84;21060;-89
2021/10/17 05:45:05;;;;;;;30.52;23.38;;;;;;;8.27;100.00;101090.84;1661865;85;21143;-89
2021/10/17 05:47:32;;;;;;;34.85;26.60;;;;;;;8.30;100.00;101094.09;1661803;84;21149;-89
2021/10/17 05:50:03;;;;;;;35.78;27.13;;;;;;;8.27;100.00;101101.22;1661828;84;21041;-89
2021/10/17 05:52:31;;;;;;;33.23;26.60;;;;;;;8.17;100.00;101101.73;1661846;85;21547;-90
2021/10/17 05:54:58;;;;;;;32.38;25.02;;;;;;;8.09;100.00;101096.16;1635268;86;20973;-88
2021/10/17 05:57:26;;;;;;;31.65;24.77;;;;;;;8.02;100.00;101099.55;1597297;86;21127;-88
2021/10/17 05:59:53;;;;;;;34.10;25.30;;;;;;;7.99;100.00;101097.59;1609474;87;21163;-89
2021/10/17 06:02:22;;;;;;;28.60;23.65;;;;;;;7.98;100.00;101103.69;1587312;87;21113;-89
2021/10/17 06:04:50;;;;;;;33.63;24.18;;;;;;;8.00;100.00;101096.67;1635326;86;21086;-90
2021/10/17 06:07:26;;;;;;;28.57;23.25;;;;;;;8.04;100.00;101096.89;1616003;86;21748;-88
2021/10/17 06:09:53;;;;;;;29.02;23.45;;;;;;;8.11;100.00;101091.72;1615012;87;21085;-88
2021/10/17 06:12:22;;;;;;;33.75;24.05;;;;;;;8.20;100.00;101098.98;1626838;86;21168;-87
2021/10/17 06:14:50;;;;;;;27.90;21.90;;;;;;;8.31;100.00;101094.91;1632140;86;21072;-87
2021/10/17 06:17:17;;;;;;;26.73;22.50;;;;;;;8.41;100.00;101098.65;1585690;87;21135;-89
2021/10/17 06:19:44;;;;;;;29.32;21.77;;;;;;;8.52;100.00;101100.20;1606244;87;21684;-89
2021/10/17 06:22:11;;;;;;;26.85;20.15;;;;;;;8.63;100.00;101094.81;1606004;87;21088;-87
2021/10/17 06:24:40;;;;;;;28.65;22.27;;;;;;;8.74;100.00;101100.22;1606495;87;21178;-88
2021/10/17 06:27:07;;;;;;;30.27;22.30;;;;;;;8.86;100.00;101097.80;1606619;87;21049;-89
2021/10/17 06:29:35;;;;;;;25.85;20.32;;;;;;;8.94;100.00;101096.87;1613071;86;21066;-89
2021/10/17 06:32:05;;;;;;;29.57;21.33;;;;;;;9.03;100.00;101089.82;1632843;86;21661;-88
2021/10/17 06:34:34;;;;;;;29.75;21.57;;;;;;;9.14;100.00;101096.50;1626209;86;21065;-90
2021/10/17 06:37:01;;;;;;;25.17;20.02;;;;;;;9.25;100.00;101102.33;1608387;86;21787;-90
2021/10/17 06:39:28;;;;;;;26.12;20.05;;;;;;;9.36;100.00;101102.96;1614571;86;21207;-90
2021/10/17 06:41:56;;;;;;;24.25;20.57;;;;;;;9.49;100.00;101102.21;1600938;88;21097;-90
2021/10/17 06:44:36;;;;;;;27.07;19.98;;;;;;;9.56;100.00;101100.41;1573047;89;21068;-88
2021/10/17 06:47:03;;;;;;;25.60;19.25;;;;;;;9.68;100.00;101102.70;1622579;86;21033;-88
2021/10/17 06:49:35;;;;;;;25.90;19.57;;;;;;;9.77;100.00;101100.82;1624309;86;21551;-88
2021/10/17 06:52:06;;;;;;;23.52;18.30;;;;;;;9.85;100.00;101097.74;1619116;86;21076;-88
2021/10/17 06:54:35;;;;;;;20.10;16.57;;;;;;;9.92;100.00;101093.81;1622494;86;21304;-89
2021/10/17 06:57:02;;;;;;;26.50;18.67;;;;;;;9.99;100.00;101090.32;1602982;87;21959;-88
2021/10/17 06:59:29;;;;;;;22.50;17.75;;;;;;;10.10;100.00;101096.12;1595598;88;21172;-89
2021/10/17 07:02:01;;;;;;;22.00;16.60;;;;;;;10.18;100.00;101092.55;1607552;86;21641;-87
2021/10/17 07:04:25;;;;;;;20.88;16.48;;;;;;;10.27;100.00;101093.73;1647348;85;21101;-89
2021/10/17 07:06:52;;;;;;;18.87;15.58;;;;;;;10.37;100.00;101085.71;1602896;88;21106;-89
2021/10/17 07:09:19;;;;;;;21.05;16.35;;;;;;;10.49;100.00;101087.11;1616806;85;21124;-88
2021/10/17 07:11:56;;;;;;;23.92;15.75;;;;;;;10.61;100.00;101088.91;1628079;86;21114;-89
2021/10/17 07:14:25;;;;;;;20.80;14.75;;;;;;;10.77;100.00;101093.06;1604213;87;21158;-88
2021/10/17 07:16:56;;;;;;;16.48;13.70;;;;;;;10.92;100.00;101092.01;1585149;88;21082;-90
2021/10/17 07:19:25;;;;;;;19.67;13.18;;;;;;;11.16;100.00;101088.63;1588672;88;21073;-89
2021/10/17 07:21:52;;;;;;;17.10;13.90;;;;;;;11.34;100.00;101083.89;1588709;88;21113;-89
2021/10/17 07:24:19;;;;;;;17.77;13.70;;;;;;;11.49;100.00;101085.41;1600829;87;21078;-88
2021/10/17 07:26:49;;;;;;;17.17;13.90;;;;;;;11.61;100.00;101084.17;1611296;87;21652;-89
2021/10/17 07:29:17;;;;;;;15.83;12.88;;;;;;;11.72;100.00;101084.70;1613844;87;21125;-86
2021/10/17 07:31:44;;;;;;;15.00;12.63;;;;;;;11.79;100.00;101084.61;1591228;87;21116;-88
2021/10/17 07:34:11;;;;;;;18.17;13.90;;;;;;;11.81;100.00;101081.42;1591248;88;21018;-86
2021/10/17 07:36:39;;;;;;;17.35;13.10;;;;;;;11.84;100.00;101085.95;1614200;87;21074;-91
2021/10/17 07:39:11;;;;;;;15.53;13.05;;;;;;;11.88;100.00;101094.37;1588023;87;21194;-92
2021/10/17 07:41:41;;;;;;;13.32;10.75;;;;;;;11.91;100.00;101092.83;1614133;87;21801;-91
2021/10/17 07:44:09;;;;;;;12.68;10.63;;;;;;;11.93;100.00;101090.13;1613996;87;21050;-94
2021/10/17 07:46:38;;;;;;;13.22;11.15;;;;;;;11.96;100.00;101089.44;1610819;87;38753;-92
2021/10/17 07:49:07;;;;;;;15.55;12.23;;;;;;;11.97;100.00;101087.22;1614539;87;21086;-90
2021/10/17 07:51:35;;;;;;;30.05;15.38;;;;;;;11.96;100.00;101088.13;1605095;88;21154;-88
2021/10/17 07:54:04;;;;;;;28.23;15.60;;;;;;;11.95;100.00;101092.98;1611297;87;21093;-92
2021/10/17 07:56:34;;;;;;;41.90;20.68;;;;;;;11.96;100.00;101092.05;1613659;87;21084;-91
2021/10/17 07:59:02;;;;;;;25.15;16.05;;;;;;;11.97;100.00;101091.13;1598627;87;21586;-92
2021/10/17 08:01:32;;;;;;;28.17;17.50;;;;;;;11.99;100.00;101089.22;1615371;87;21082;-94
2021/10/17 08:04:17;;;;;;;14.98;11.80;;;;;;;12.02;100.00;101092.07;1615607;88;21856;-91
2021/10/17 08:06:59;;;;;;;13.03;10.70;;;;;;;12.06;100.00;101087.00;1601313;87;21060;-89
2021/10/17 08:09:26;;;;;;;14.93;10.88;;;;;;;12.17;100.00;101084.89;1615090;87;21136;-92
2021/10/17 08:11:55;;;;;;;15.60;11.70;;;;;;;12.31;100.00;101079.95;1615627;87;21140;-92
2021/10/17 08:14:22;;;;;;;14.40;11.63;;;;;;;12.50;100.00;101080.70;1615458;87;21546;-92
2021/10/17 08:16:52;;;;;;;13.33;10.97;;;;;;;12.67;100.00;101079.88;1615580;87;21175;-93
2021/10/17 08:19:21;;;;;;;12.58;11.10;;;;;;;12.83;100.00;101072.98;1615278;87;21177;-92
2021/10/17 08:21:49;;;;;;;13.88;10.93;;;;;;;12.97;100.00;101071.92;1615747;87;21196;-92
2021/10/17 08:24:16;;;;;;;15.88;10.78;;;;;;;13.13;100.00;101075.48;1615506;87;21585;-93
2021/10/17 08:26:44;;;;;;;15.45;10.10;;;;;;;13.23;100.00;101076.40;1615801;87;21037;-92
2021/10/17 08:29:12;;;;;;;15.68;11.22;;;;;;;13.31;100.00;101079.24;1602567;88;21231;-91
2021/10/17 08:31:39;;;;;;;13.48;10.20;;;;;;;13.40;100.00;101072.50;1594432;88;21590;-93
2021/10/17 08:34:08;;;;;;;23.07;15.38;;;;;;;13.49;100.00;101075.69;1584223;88;21104;-91
2021/10/17 08:36:39;;;;;;;54.25;31.48;;;;;;;13.63;100.00;101070.63;1591234;88;21125;-92
2021/10/17 08:39:06;;;;;;;17.07;13.48;;;;;;;13.84;100.00;101074.59;1594540;88;21069;-92
2021/10/17 08:41:48;;;;;;;15.58;10.72;;;;;;;13.99;100.00;101071.67;1594466;88;21187;-92
2021/10/17 08:44:17;;;;;;;12.07;10.15;;;;;;;14.15;100.00;101076.48;1594289;88;21098;-91
2021/10/17 08:46:55;;;;;;;13.43;9.95;;;;;;;14.28;94.34;101073.67;1573418;88;21677;-90
2021/10/17 08:49:23;;;;;;;11.93;9.33;;;;;;;14.40;94.72;101066.08;1581284;89;21584;-93
2021/10/17 08:51:51;;;;;;;15.08;9.93;;;;;;;14.56;87.23;101063.47;1594492;88;21026;-93
2021/10/17 08:54:18;;;;;;;12.63;9.60;;;;;;;14.72;87.94;101062.55;1561976;90;21886;-94
2021/10/17 08:56:47;;;;;;;13.78;9.65;;;;;;;14.90;86.90;101060.13;1601808;87;21048;-92
2021/10/17 08:59:16;;;;;;;11.48;8.90;;;;;;;15.09;80.19;101050.66;1602772;88;21077;-92
2021/10/17 09:01:47;;;;;;;10.43;8.90;;;;;;;15.22;79.43;101053.04;1600288;88;21064;-91
2021/10/17 09:04:17;;;;;;;11.05;9.10;;;;;;;15.36;78.36;101056.58;1603102;88;21037;-93
2021/10/17 09:06:54;;;;;;;10.85;9.20;;;;;;;15.48;74.85;101049.41;1601969;88;21210;-92
2021/10/17 09:09:21;;;;;;;15.40;9.58;;;;;;;15.59;74.53;101047.13;1591114;88;21542;-93
2021/10/17 09:12:00;;;;;;;15.43;9.30;;;;;;;15.67;66.82;101042.03;1594301;87;21025;-95
2021/10/17 09:14:30;;;;;;;11.25;8.98;;;;;;;15.79;70.30;101047.96;1602593;88;21010;-94
2021/10/17 09:16:59;;;;;;;11.05;8.75;;;;;;;15.90;64.59;101041.30;1602822;88;21085;-92
2021/10/17 09:19:30;;;;;;;10.98;8.95;;;;;;;15.98;71.17;101042.39;1602648;88;22043;-92
2021/10/17 09:22:06;;;;;;;11.25;8.68;;;;;;;16.06;68.83;101039.89;1602852;88;21117;-92
2021/10/17 09:24:38;;;;;;;12.55;8.20;;;;;;;16.09;65.17;101026.48;1583078;89;21104;-95
2021/10/17 09:27:18;;;;;;;;;;;;;;;16.05;62.19;101027.25;1605499;88;21406;-93
2021/10/17 09:29:52;;;;;;;10.48;8.30;;;;;;;15.98;64.67;101022.69;1603029;88;20452;-93
2021/10/17 09:32:23;;;;;;;10.20;8.00;;;;;;;15.92;63.65;101019.67;1602778;88;21654;-94
2021/10/17 09:34:58;;;;;;;9.53;8.10;;;;;;;15.87;64.28;101015.30;1584678;89;21066;-92
2021/10/17 09:37:34;;;;;;;13.15;10.82;;;;;;;15.85;63.33;101024.30;1602772;88;21060;-90
2021/10/17 09:40:24;;;;;;;14.78;11.70;;;;;;;15.76;62.80;101017.56;1584459;88;22210;-86
2021/10/17 09:43:23;;;;;;;15.48;12.43;;;;;;;15.59;74.12;101020.89;1598177;88;21037;-83
2021/10/17 09:46:14;;;;;;;17.55;12.60;;;;;;;15.46;83.09;101015.44;1597661;88;21170;-87
2021/10/17 09:48:43;;;;;;;17.45;12.70;;;;;;;15.28;84.62;101013.98;1602627;88;21038;-86
2021/10/17 09:51:16;;;;;;;16.10;13.10;;;;;;;15.10;87.79;101016.42;1602969;88;21076;-87
2021/10/17 09:53:48;;;;;;;21.17;16.57;;;;;;;14.93;87.44;101013.16;1603223;88;21065;-90
2021/10/17 09:56:35;;;;;;;47.65;29.35;;;;;;;14.80;94.61;101014.22;1601582;88;21119;-88
2021/10/17 09:59:06;;;;;;;21.87;16.27;;;;;;;14.74;88.91;101011.32;1602718;88;21168;-88
2021/10/17 10:01:37;;;;;;;21.20;16.12;;;;;;;14.66;90.67;101013.28;1564544;89;21112;-87
2021/10/17 10:04:08;;;;;;;21.07;14.05;;;;;;;14.64;99.87;101011.23;1602917;88;21060;-89
2021/10/17 10:06:36;;;;;;;19.67;14.98;;;;;;;14.64;100.00;101011.23;1602924;88;21546;-88
2021/10/17 10:09:09;;;;;;;20.27;15.88;;;;;;;14.61;96.80;101018.88;1603007;88;21148;-88
2021/10/17 10:11:38;;;;;;;22.42;14.60;;;;;;;14.56;92.51;101018.45;1603065;88;21183;-87
2021/10/17 10:14:08;;;;;;;17.55;14.10;;;;;;;14.50;91.69;101018.98;1584463;88;21056;-87
2021/10/17 10:16:36;;;;;;;18.30;14.40;;;;;;;14.39;94.95;101023.81;1603347;88;21068;-88
2021/10/17 10:19:07;;;;;;;17.23;13.50;;;;;;;14.31;92.36;101025.79;1602973;88;21498;-88
2021/10/17 10:21:37;;;;;;;20.40;14.70;;;;;;;14.23;99.55;101021.67;1603461;88;21554;-88
2021/10/17 10:24:07;;;;;;;18.73;14.35;;;;;;;14.16;96.59;101020.04;1602788;88;21181;-88
2021/10/17 10:26:37;;;;;;;19.17;16.40;;;;;;;14.08;98.13;101022.47;1603397;88;21139;-87
2021/10/17 10:29:04;;;;;;;21.12;15.65;;;;;;;14.02;99.42;101022.50;1602761;88;21037;-92
2021/10/17 10:31:55;;;;;;;20.85;16.55;;;;;;;14.02;100.00;101013.83;1602694;88;21062;-88
2021/10/17 10:34:25;;;;;;;24.63;17.05;;;;;;;14.05;100.00;101017.52;1602412;87;21029;-90
2021/10/17 10:36:55;;;;;;;18.82;15.15;;;;;;;14.05;100.00;101020.13;1586323;87;21213;-86
2021/10/17 10:39:33;;;;;;;19.62;15.68;;;;;;;14.03;100.00;101013.69;1585100;89;21059;-87
2021/10/17 10:42:01;;;;;;;;;;;;;;;14.00;100.00;101017.89;1558647;90;21110;-87
2021/10/17 10:44:40;;;;;;;20.20;14.90;;;;;;;13.98;100.00;101009.82;1611878;87;20202;-90
2021/10/17 10:47:26;;;;;;;21.75;14.70;;;;;;;13.98;100.00;101005.89;1609109;87;21135;-87
2021/10/17 10:49:56;;;;;;;19.98;14.38;;;;;;;13.99;100.00;101008.84;1612042;87;21213;-87
2021/10/17 10:52:37;;;;;;;18.95;14.50;;;;;;;14.07;100.00;101012.13;1612349;87;22395;-88
2021/10/17 10:55:08;;;;;;;18.27;14.00;;;;;;;14.11;96.57;101011.75;1612158;87;21118;-87
2021/10/17 10:57:40;;;;;;;18.62;13.62;;;;;;;14.11;96.19;101010.91;1601291;87;21035;-88
2021/10/17 11:00:15;;;;;;;17.32;13.80;;;;;;;14.10;93.05;101012.70;1601770;88;21094;-87
2021/10/17 11:03:14;;;;;;;17.40;14.45;;;;;;;14.08;93.05;101010.69;1601652;88;21188;-88
2021/10/17 11:06:01;;;;;;;19.25;14.18;;;;;;;14.06;93.14;101007.36;1601878;88;21620;-86
2021/10/17 11:08:28;;;;;;;18.40;14.05;;;;;;;14.07;90.82;101010.33;1576772;89;21535;-89
2021/10/17 11:10:57;;;;;;;18.02;13.35;;;;;;;14.06;86.17;101000.81;1601479;88;21073;-86
2021/10/17 11:13:41;;;;;;;16.37;13.18;;;;;;;14.08;91.86;101002.83;1577282;88;21634;-87
2021/10/17 11:16:21;;;;;;;15.98;12.73;;;;;;;14.09;95.43;101003.68;1598342;88;21324;-88
2021/10/17 11:18:58;;;;;;;18.90;12.73;;;;;;;14.08;87.94;100995.47;1578973;88;21123;-87
2021/10/17 11:21:31;;;;;;;15.93;11.73;;;;;;;14.03;86.52;100999.78;1599958;88;21612;-88